createdAt,value
2018-07-02T00:58:27.703Z,99.90
2018-07-02T01:00:56.462Z,99.90
2018-07-02T01:03:26.024Z,99.90
2018-07-02T01:05:54.554Z,99.90
2018-07-02T01:08:23.129Z,99.90
2018-07-02T01:10:51.547Z,99.90
2018-07-02T01:13:20.100Z,99.90
2018-07-02T01:15:49.076Z,99.90
2018-07-02T01:18:18.134Z,99.90
2018-07-02T01:20:46.792Z,99.90
2018-07-02T01:23:15.226Z,99.90
2018-07-02T01:25:43.893Z,99.90
2018-07-02T01:28:12.294Z,99.90
2018-07-02T01:30:40.732Z,99.90
2018-07-02T01:33:09.714Z,99.90
2018-07-02T01:35:38.286Z,99.90
2018-07-02T01:38:07.060Z,99.90
2018-07-02T01:40:35.479Z,99.90
2018-07-02T01:43:04.232Z,99.90
2018-07-02T01:45:32.672Z,99.90
2018-07-02T01:48:01.306Z,99.90
2018-07-02T01:50:29.795Z,99.90
2018-07-02T01:52:58.527Z,99.90
2018-07-02T01:55:27.010Z,99.90
2018-07-02T01:57:55.745Z,99.90
2018-07-02T02:00:24.776Z,99.90
2018-07-02T02:02:53.159Z,99.90
2018-07-02T02:05:21.571Z,99.90
2018-07-02T02:07:49.969Z,99.90
2018-07-02T02:10:18.662Z,99.90
2018-07-02T02:12:47.468Z,99.90
2018-07-02T02:15:16.117Z,99.90
2018-07-02T02:17:45.220Z,99.90
2018-07-02T02:20:13.835Z,99.90
2018-07-02T02:22:42.839Z,99.90
2018-07-02T02:25:11.613Z,99.90
2018-07-02T02:27:40.212Z,99.90
2018-07-02T02:30:08.715Z,99.90
2018-07-02T02:32:37.366Z,99.90
2018-07-02T02:35:06.952Z,99.90
2018-07-02T02:37:35.656Z,99.90
2018-07-02T02:40:04.796Z,99.90
2018-07-02T02:42:33.665Z,99.90
2018-07-02T02:45:02.809Z,99.90
2018-07-02T02:47:31.639Z,99.90
2018-07-02T02:50:00.051Z,99.90
2018-07-02T02:52:29.073Z,99.90
2018-07-02T02:54:57.847Z,99.90
2018-07-02T02:57:27.375Z,99.90
2018-07-02T02:59:56.567Z,99.90
2018-07-02T03:02:25.320Z,99.90
2018-07-02T03:04:53.980Z,99.90
2018-07-02T03:07:22.600Z,99.90
2018-07-02T03:09:51.233Z,99.90
2018-07-02T03:12:19.592Z,99.90
2018-07-02T03:14:48.348Z,99.90
2018-07-02T03:17:16.829Z,99.90
2018-07-02T03:19:45.247Z,99.90
2018-07-02T03:22:13.628Z,99.90
2018-07-02T03:24:42.504Z,99.90
2018-07-02T03:27:12.233Z,99.90
2018-07-02T03:29:40.852Z,99.90
2018-07-02T03:32:09.621Z,99.90
2018-07-02T03:34:38.405Z,99.90
2018-07-02T03:37:07.047Z,99.90
2018-07-02T03:39:35.704Z,99.90
2018-07-02T03:42:05.671Z,99.90
2018-07-02T03:44:34.506Z,99.90
2018-07-02T03:47:02.966Z,99.90
2018-07-02T03:49:31.396Z,99.90
2018-07-02T03:51:59.844Z,99.90
2018-07-02T03:54:28.412Z,99.90
2018-07-02T03:56:57.359Z,99.90
2018-07-02T03:59:25.938Z,99.90
2018-07-02T04:01:54.847Z,99.90
2018-07-02T04:04:23.718Z,99.90
2018-07-02T04:06:52.400Z,99.90
2018-07-02T04:09:21.362Z,99.90
2018-07-02T04:11:49.809Z,99.90
2018-07-02T04:14:18.427Z,99.90
2018-07-02T04:16:47.178Z,99.90
2018-07-02T04:19:15.887Z,99.90
2018-07-02T04:21:44.379Z,99.90
2018-07-02T04:24:13.050Z,99.90
2018-07-02T04:26:42.160Z,99.90
2018-07-02T04:29:11.403Z,99.90
2018-07-02T04:31:39.826Z,99.90
2018-07-02T04:34:08.986Z,99.90
2018-07-02T04:36:37.364Z,99.90
2018-07-02T04:39:07.939Z,99.90
2018-07-02T04:41:36.626Z,99.90
2018-07-02T04:44:05.850Z,99.90
2018-07-02T04:46:34.728Z,99.90
2018-07-02T04:49:03.232Z,99.90
2018-07-02T04:51:31.919Z,99.90
2018-07-02T04:54:00.507Z,99.90
2018-07-02T04:56:30.346Z,99.90
2018-07-02T04:58:59.433Z,99.90
2018-07-02T05:01:27.895Z,99.90
2018-07-02T05:03:58.199Z,99.90
2018-07-02T05:06:26.939Z,99.90
2018-07-02T05:08:55.575Z,99.90
2018-07-02T05:11:24.095Z,99.90
2018-07-02T05:13:52.638Z,99.90
2018-07-02T05:16:21.241Z,99.90
2018-07-02T05:18:49.862Z,99.90
2018-07-02T05:21:18.299Z,99.90
2018-07-02T05:23:46.840Z,99.90
2018-07-02T05:26:15.355Z,99.90
2018-07-02T05:28:44.363Z,99.90
2018-07-02T05:31:13.175Z,99.90
2018-07-02T05:33:41.584Z,99.90
2018-07-02T05:36:10.620Z,99.90
2018-07-02T05:38:39.130Z,99.90
2018-07-02T05:41:07.539Z,99.90
2018-07-02T05:43:37.223Z,99.90
2018-07-02T05:46:05.678Z,99.90
2018-07-02T05:48:34.250Z,99.90
2018-07-02T05:51:03.040Z,99.90
2018-07-02T05:53:32.573Z,99.90
2018-07-02T05:56:01.277Z,99.30
2018-07-02T05:58:29.921Z,96.90
2018-07-02T06:00:58.775Z,91.60
2018-07-02T06:03:28.331Z,83.70
2018-07-02T06:05:57.544Z,66.60
2018-07-02T06:08:25.993Z,61.00
2018-07-02T06:13:23.021Z,53.10
2018-07-02T06:15:51.473Z,49.50
2018-07-02T06:18:20.102Z,45.90
2018-07-02T06:20:49.551Z,44.60
2018-07-02T06:23:18.030Z,43.90
2018-07-02T06:25:46.476Z,42.40
2018-07-02T06:28:16.329Z,41.30
2018-07-02T06:30:45.037Z,41.20
2018-07-02T06:33:13.467Z,41.30
2018-07-02T06:38:10.209Z,41.40
2018-07-02T06:40:39.007Z,38.50
2018-07-02T06:43:08.135Z,38.00
2018-07-02T06:45:37.632Z,37.80
2018-07-02T06:48:06.124Z,36.90
2018-07-02T06:50:35.154Z,37.70
2018-07-02T06:53:03.617Z,39.80
2018-07-02T06:55:32.139Z,39.00
2018-07-02T06:58:00.823Z,38.80
2018-07-02T07:00:29.400Z,36.20
2018-07-02T07:02:58.223Z,36.10
2018-07-02T07:05:27.513Z,35.70
2018-07-02T07:07:56.258Z,34.90
2018-07-02T07:10:25.614Z,32.80
2018-07-02T07:12:54.092Z,35.30
2018-07-02T07:15:22.581Z,37.70
2018-07-02T07:17:52.200Z,35.80
2018-07-02T07:20:21.319Z,34.70
2018-07-02T07:22:50.449Z,34.60
2018-07-02T07:25:18.990Z,35.00
2018-07-02T07:27:47.635Z,34.80
2018-07-02T07:30:16.422Z,35.40
2018-07-02T07:32:44.809Z,35.00
2018-07-02T07:35:13.265Z,32.50
2018-07-02T07:37:41.801Z,30.00
2018-07-02T07:40:10.641Z,31.00
2018-07-02T07:42:39.520Z,29.80
2018-07-02T07:45:08.296Z,29.50
2018-07-02T07:47:37.021Z,29.40
2018-07-02T07:50:06.357Z,30.40
2018-07-02T07:52:35.451Z,30.60
2018-07-02T07:55:04.619Z,29.60
2018-07-02T07:57:33.372Z,30.60
2018-07-02T08:00:02.119Z,30.90
2018-07-02T08:02:30.597Z,31.40
2018-07-02T08:04:59.151Z,31.10
2018-07-02T08:07:27.653Z,30.70
2018-07-02T08:09:56.542Z,30.00
2018-07-02T08:12:26.020Z,31.20
2018-07-02T08:14:54.700Z,31.70
2018-07-02T08:17:23.410Z,30.60
2018-07-02T08:19:52.113Z,31.50
2018-07-02T08:22:20.613Z,30.20
2018-07-02T08:24:49.282Z,29.90
2018-07-02T08:27:17.996Z,29.30
2018-07-02T08:29:47.901Z,28.60
2018-07-02T08:32:16.825Z,30.00
2018-07-02T08:34:45.473Z,29.20
2018-07-02T08:37:14.197Z,27.70
2018-07-02T08:42:11.397Z,29.80
2018-07-02T08:44:39.976Z,29.50
2018-07-02T08:47:08.628Z,30.00
2018-07-02T08:49:37.291Z,27.20
2018-07-02T08:52:06.218Z,29.00
2018-07-02T08:54:35.666Z,28.10
2018-07-02T08:57:04.394Z,29.90
2018-07-02T08:59:33.330Z,27.00
2018-07-02T09:02:01.800Z,26.10
2018-07-02T09:04:31.692Z,26.20
2018-07-02T09:07:00.160Z,27.20
2018-07-02T09:09:28.647Z,27.80
2018-07-02T09:11:57.779Z,28.70
2018-07-02T09:14:26.303Z,26.60
2018-07-02T09:16:55.073Z,26.80
2018-07-02T09:19:24.479Z,25.20
2018-07-02T09:21:53.245Z,26.30
2018-07-02T09:24:25.231Z,27.80
2018-07-02T09:26:53.831Z,28.10
2018-07-02T09:29:22.809Z,27.40
2018-07-02T09:31:52.349Z,27.70
2018-07-02T09:34:21.148Z,27.30
2018-07-02T09:36:50.920Z,26.60
2018-07-02T09:39:19.502Z,26.20
2018-07-02T09:41:48.420Z,26.50
2018-07-02T09:46:46.308Z,26.70
2018-07-02T09:49:15.566Z,29.20
2018-07-02T09:51:44.641Z,26.40
2018-07-02T09:54:13.636Z,28.30
2018-07-02T09:56:42.469Z,25.40
2018-07-02T09:59:11.105Z,25.10
2018-07-02T10:01:40.197Z,26.00
2018-07-02T10:04:09.165Z,26.50
2018-07-02T10:06:38.034Z,30.00
2018-07-02T10:09:10.492Z,27.90
2018-07-02T10:11:39.649Z,23.60
2018-07-02T10:14:08.301Z,25.20
2018-07-02T10:16:36.887Z,26.70
2018-07-02T10:19:06.151Z,26.60
2018-07-02T10:21:35.313Z,25.40
2018-07-02T10:24:04.210Z,25.30
2018-07-02T10:26:32.893Z,26.70
2018-07-02T10:29:01.542Z,25.70
2018-07-02T10:31:30.047Z,25.10
2018-07-02T10:33:58.596Z,26.30
2018-07-02T10:36:27.068Z,27.70
2018-07-02T10:38:56.179Z,25.50
2018-07-02T10:41:24.781Z,28.20
2018-07-02T10:43:54.623Z,25.10
2018-07-02T10:46:23.394Z,26.30
2018-07-02T10:48:52.580Z,27.60
2018-07-02T10:51:21.054Z,27.60
2018-07-02T10:53:50.060Z,26.10
2018-07-02T10:56:18.969Z,26.10
2018-07-02T10:58:48.418Z,29.30
2018-07-02T11:01:17.439Z,29.30
2018-07-02T11:03:46.070Z,28.30
2018-07-02T11:06:14.468Z,26.10
2018-07-02T11:08:43.138Z,27.20
2018-07-02T11:11:12.243Z,28.00
2018-07-02T11:13:41.476Z,29.30
2018-07-02T11:16:09.951Z,28.90
2018-07-02T11:18:39.148Z,32.40
2018-07-02T11:21:08.178Z,32.00
2018-07-02T11:23:36.991Z,31.00
2018-07-02T11:26:06.212Z,35.80
2018-07-02T11:28:34.773Z,31.70
2018-07-02T11:31:04.134Z,33.60
2018-07-02T11:33:33.102Z,36.80
2018-07-02T11:36:03.238Z,34.00
2018-07-02T11:38:32.454Z,33.20
2018-07-02T11:41:01.050Z,32.70
2018-07-02T11:43:29.491Z,32.00
2018-07-02T11:45:58.322Z,35.40
2018-07-02T11:48:30.899Z,36.40
2018-07-02T11:51:00.518Z,36.80
2018-07-02T11:53:29.462Z,34.40
2018-07-02T11:55:57.865Z,34.40
2018-07-02T11:58:26.828Z,37.70
2018-07-02T12:03:24.513Z,37.10
2018-07-02T12:05:53.081Z,34.80
2018-07-02T12:08:22.229Z,33.70
2018-07-02T12:10:51.125Z,35.70
2018-07-02T12:13:19.887Z,35.30
2018-07-02T12:18:17.083Z,36.30
2018-07-02T12:20:45.617Z,36.70
2018-07-02T12:23:14.888Z,34.10
2018-07-02T12:25:43.764Z,33.20
2018-07-02T12:28:12.716Z,35.10
2018-07-02T12:33:10.404Z,34.80
2018-07-02T12:35:39.251Z,31.20
2018-07-02T12:38:08.018Z,31.80
2018-07-02T12:40:37.105Z,34.20
2018-07-02T12:43:06.242Z,33.80
2018-07-02T12:45:34.694Z,31.80
2018-07-02T12:48:03.196Z,33.30
2018-07-02T12:50:31.942Z,35.90
2018-07-02T12:53:00.834Z,33.80
2018-07-02T12:55:29.499Z,33.90
2018-07-02T12:57:58.270Z,32.10
2018-07-02T13:03:01.736Z,29.80
2018-07-02T13:05:53.199Z,29.60
2018-07-02T13:08:22.785Z,37.40
2018-07-02T13:10:52.189Z,33.70
2018-07-02T13:13:21.058Z,35.80
2018-07-02T13:15:49.696Z,40.50
2018-07-02T13:18:18.662Z,37.30
2018-07-02T13:20:47.282Z,35.10
2018-07-02T13:23:15.775Z,35.30
2018-07-02T13:25:44.209Z,36.00
2018-07-02T13:28:13.326Z,34.20
2018-07-02T13:30:42.835Z,32.50
2018-07-02T13:33:11.565Z,34.10
2018-07-02T13:35:40.042Z,32.70
2018-07-02T13:38:08.845Z,33.20
2018-07-02T13:40:37.624Z,36.90
2018-07-02T13:43:06.742Z,36.10
2018-07-02T13:45:35.933Z,38.70
2018-07-02T13:48:05.246Z,35.10
2018-07-02T13:50:34.825Z,36.60
2018-07-02T13:53:03.415Z,39.40
2018-07-02T13:55:32.451Z,37.60
2018-07-02T13:58:01.127Z,37.10
2018-07-02T14:00:29.714Z,39.30
2018-07-02T14:02:58.342Z,37.30
2018-07-02T14:05:26.908Z,38.10
2018-07-02T14:07:55.922Z,39.20
2018-07-02T14:10:24.409Z,37.20
2018-07-02T14:12:53.072Z,38.50
2018-07-02T14:15:21.740Z,40.00
2018-07-02T14:17:50.200Z,34.70
2018-07-02T14:20:18.880Z,35.90
2018-07-02T14:22:48.562Z,36.90
2018-07-02T14:25:17.886Z,37.20
2018-07-02T14:27:46.537Z,36.50
2018-07-02T14:30:15.193Z,37.00
2018-07-02T14:32:43.823Z,36.40
2018-07-02T14:35:12.762Z,33.20
2018-07-02T14:37:41.584Z,34.70
2018-07-02T14:42:38.594Z,35.00
2018-07-02T14:45:07.359Z,34.60
2018-07-02T14:47:36.373Z,35.40
2018-07-02T14:50:05.222Z,34.30
2018-07-02T14:52:34.481Z,35.20
2018-07-02T14:55:04.585Z,37.00
2018-07-02T14:57:33.283Z,36.30
2018-07-02T15:00:02.473Z,36.90
2018-07-02T15:02:30.911Z,35.40
2018-07-02T15:04:59.414Z,36.30
2018-07-02T15:07:29.126Z,36.80
2018-07-02T15:09:57.523Z,36.90
2018-07-02T15:12:25.979Z,36.30
2018-07-02T15:14:54.589Z,35.90
2018-07-02T15:17:23.157Z,33.80
2018-07-02T15:19:51.904Z,34.40
2018-07-02T15:22:20.331Z,38.00
2018-07-02T15:24:49.227Z,36.30
2018-07-02T15:27:18.064Z,35.80
2018-07-02T15:29:47.172Z,37.40
2018-07-02T15:32:17.031Z,36.20
2018-07-02T15:34:45.709Z,37.70
2018-07-02T15:37:14.798Z,37.30
2018-07-02T15:39:43.393Z,36.60
2018-07-02T15:42:11.808Z,36.60
2018-07-02T15:44:41.613Z,36.20
2018-07-02T15:47:10.098Z,37.20
2018-07-02T15:49:39.125Z,36.40
2018-07-02T15:52:07.964Z,36.30
2018-07-02T15:54:36.956Z,35.40
2018-07-02T15:57:05.478Z,36.10
2018-07-02T15:59:34.605Z,38.80
2018-07-02T16:02:04.367Z,35.90
2018-07-02T16:04:32.842Z,36.20
2018-07-02T16:07:01.596Z,35.50
2018-07-02T16:09:30.034Z,37.20
2018-07-02T16:14:27.621Z,36.40
2018-07-02T16:16:56.169Z,35.20
2018-07-02T16:19:25.252Z,36.50
2018-07-02T16:21:54.226Z,36.30
2018-07-02T16:24:22.774Z,36.30
2018-07-02T16:26:51.358Z,35.70
2018-07-02T16:29:20.500Z,38.30
2018-07-02T16:31:49.205Z,36.50
2018-07-02T16:34:17.616Z,37.40
2018-07-02T16:36:46.099Z,36.60
2018-07-02T16:39:14.625Z,36.20
2018-07-02T16:41:43.428Z,37.00
2018-07-02T16:44:12.380Z,37.80
2018-07-02T16:46:41.249Z,36.10
2018-07-02T16:49:10.014Z,37.00
2018-07-02T16:54:06.864Z,37.50
2018-07-02T16:56:36.832Z,38.80
2018-07-02T16:59:08.709Z,38.20
2018-07-02T17:01:37.663Z,40.00
2018-07-02T17:04:06.610Z,40.40
2018-07-02T17:06:35.931Z,37.40
2018-07-02T17:09:07.512Z,36.40
2018-07-02T17:11:36.535Z,39.20
2018-07-02T17:14:05.174Z,39.10
2018-07-02T17:16:33.766Z,37.60
2018-07-02T17:19:02.759Z,39.40
2018-07-02T17:21:31.386Z,38.80
2018-07-02T17:23:59.893Z,40.30
2018-07-02T17:26:28.343Z,40.50
2018-07-02T17:28:56.756Z,39.10
2018-07-02T17:31:25.301Z,38.80
2018-07-02T17:33:53.938Z,39.60
2018-07-02T17:36:22.494Z,40.40
2018-07-02T17:38:52.708Z,38.50
2018-07-02T17:41:21.245Z,40.00
2018-07-02T17:43:49.760Z,39.60
2018-07-02T17:46:18.492Z,39.70
2018-07-02T17:48:47.756Z,40.20
2018-07-02T17:51:16.593Z,39.60
2018-07-02T17:53:45.124Z,39.60
2018-07-02T17:56:14.059Z,42.10
2018-07-02T17:58:43.468Z,41.50
2018-07-02T18:01:11.971Z,40.30
2018-07-02T18:03:40.667Z,42.50
2018-07-02T18:06:09.208Z,42.70
2018-07-02T18:08:37.641Z,42.80
2018-07-02T18:11:06.457Z,41.60
2018-07-02T18:13:35.685Z,42.70
2018-07-02T18:16:04.479Z,43.20
2018-07-02T18:18:33.978Z,43.10
2018-07-02T18:21:02.509Z,43.80
2018-07-02T18:23:31.450Z,43.90
2018-07-02T18:28:29.081Z,44.30
2018-07-02T18:30:57.918Z,44.70
2018-07-02T18:33:26.945Z,44.30
2018-07-02T18:35:56.251Z,44.30
2018-07-02T18:38:24.997Z,43.80
2018-07-02T18:40:53.780Z,44.40
2018-07-02T18:43:22.491Z,44.90
2018-07-02T18:45:50.976Z,45.00
2018-07-02T18:48:19.603Z,45.60
2018-07-02T18:50:48.249Z,45.90
2018-07-02T18:53:17.016Z,46.50
2018-07-02T18:55:45.473Z,46.90
2018-07-02T18:58:13.943Z,47.20
2018-07-02T19:00:42.556Z,46.80
2018-07-02T19:03:11.443Z,47.20
2018-07-02T19:05:40.262Z,47.50
2018-07-02T19:08:09.150Z,47.80
2018-07-02T19:10:38.011Z,47.90
2018-07-02T19:13:06.659Z,48.20
2018-07-02T19:15:35.678Z,48.40
2018-07-02T19:18:04.271Z,48.70
2018-07-02T19:20:32.684Z,50.00
2018-07-02T19:23:01.637Z,50.00
2018-07-02T19:25:31.883Z,49.60
2018-07-02T19:28:00.375Z,49.30
2018-07-02T19:30:29.626Z,50.10
2018-07-02T19:32:58.275Z,50.00
2018-07-02T19:35:27.804Z,51.30
2018-07-02T19:37:56.430Z,51.50
2018-07-02T19:40:25.048Z,52.00
2018-07-02T19:42:53.774Z,52.30
2018-07-02T19:45:22.486Z,52.00
2018-07-02T19:47:51.097Z,53.30
2018-07-02T19:50:20.068Z,54.40
2018-07-02T19:52:48.574Z,54.60
2018-07-02T19:55:17.324Z,56.20
2018-07-02T19:57:45.985Z,57.00
2018-07-02T20:00:17.592Z,57.60
2018-07-02T20:02:46.281Z,57.70
2018-07-02T20:05:14.932Z,59.40
2018-07-02T20:07:43.830Z,60.40
2018-07-02T20:10:13.130Z,62.60
2018-07-02T20:12:41.812Z,64.80
2018-07-02T20:15:10.803Z,65.10
2018-07-02T20:17:39.467Z,64.30
2018-07-02T20:20:10.182Z,64.80
2018-07-02T20:22:39.810Z,66.40
2018-07-02T20:25:09.038Z,66.30
2018-07-02T20:30:08.400Z,72.50
2018-07-02T20:32:38.578Z,77.00
2018-07-02T20:35:08.673Z,79.00
2018-07-02T20:37:37.372Z,83.60
2018-07-02T20:40:06.072Z,87.10
2018-07-02T20:42:34.857Z,88.70
2018-07-02T20:45:03.844Z,88.70
2018-07-02T20:47:32.773Z,91.10
2018-07-02T20:50:01.465Z,92.40
2018-07-02T20:52:29.975Z,94.20
2018-07-02T20:54:58.401Z,94.20
2018-07-02T20:57:26.971Z,94.00
2018-07-02T20:59:55.383Z,94.30
2018-07-02T21:02:23.790Z,95.60
2018-07-02T21:04:53.053Z,96.40
2018-07-02T21:07:21.822Z,98.40
2018-07-02T21:09:50.484Z,99.90
2018-07-02T21:12:19.256Z,99.90
2018-07-02T21:14:47.883Z,99.90
2018-07-02T21:17:16.350Z,99.90
2018-07-02T21:19:44.845Z,99.90
2018-07-02T21:22:13.819Z,99.90
2018-07-02T21:24:42.941Z,99.90
2018-07-02T21:27:11.347Z,99.90
2018-07-02T21:29:39.784Z,99.90
2018-07-02T21:32:08.369Z,99.90
2018-07-02T21:34:37.032Z,99.90
2018-07-02T21:37:06.509Z,99.90
2018-07-02T21:39:34.971Z,99.90
2018-07-02T21:42:03.808Z,99.90
2018-07-02T21:44:32.479Z,99.90
2018-07-02T21:47:00.943Z,99.90
2018-07-02T21:49:30.213Z,99.90
2018-07-02T21:51:58.684Z,99.90
2018-07-02T21:54:27.188Z,99.90
